Time;durP1;ratioP1;P1;durP2;ratioP2;P2;SDS_P1;SDS_P2;PMS_P1;PMS_P2;Temp;Humidity;BMP_temperature;BMP_pressure;BME280_temperature;BME280_humidity;BME280_pressure;Samples;Min_cycle;Max_cycle;Signal;HPM_P1;HPM_P2
2021/07/27 00:00:30;;;;;;;10.57;6.93;;;;;;;;;;5022384;28;20025;-70
2021/07/27 00:02:56;;;;;;;8.63;7.30;;;;;;;;;;5023432;28;20021;-70
2021/07/27 00:05:22;;;;;;;9.82;7.25;;;;;;;;;;5018275;28;20040;-70
2021/07/27 00:07:48;;;;;;;9.32;7.22;;;;;;;;;;5030368;28;20536;-70
2021/07/27 00:10:15;;;;;;;8.60;7.80;;;;;;;;;;5016582;28;20038;-70
2021/07/27 00:12:41;;;;;;;8.60;7.70;;;;;;;;;;5019951;28;20502;-71
2021/07/27 00:15:07;;;;;;;9.20;6.78;;;;;;;;;;5022628;28;20489;-71
2021/07/27 00:17:34;;;;;;;8.20;6.72;;;;;;;;;;5016144;28;20030;-70
2021/07/27 00:20:00;;;;;;;9.40;7.25;;;;;;;;;;5020587;28;20375;-70
2021/07/27 00:22:26;;;;;;;8.30;6.43;;;;;;;;;;5026868;28;20022;-70
2021/07/27 00:24:53;;;;;;;8.52;6.93;;;;;;;;;;5016450;28;20652;-70
2021/07/27 00:27:20;;;;;;;7.93;7.07;;;;;;;;;;5020003;28;20044;-71
2021/07/27 00:29:46;;;;;;;7.85;7.05;;;;;;;;;;5019064;28;20033;-70
2021/07/27 00:32:12;;;;;;;9.73;7.30;;;;;;;;;;5023361;28;20052;-70
2021/07/27 00:34:40;;;;;;;10.60;7.57;;;;;;;;;;5017995;28;20030;-71
2021/07/27 00:37:15;;;;;;;11.60;7.88;;;;;;;;;;5020496;28;20033;-70
2021/07/27 00:39:42;;;;;;;7.80;7.10;;;;;;;;;;5012090;28;20164;-70
2021/07/27 00:42:08;;;;;;;9.50;6.78;;;;;;;;;;5022433;28;20051;-70
2021/07/27 00:44:34;;;;;;;12.93;7.72;;;;;;;;;;5024078;28;20020;-70
2021/07/27 00:47:00;;;;;;;11.00;6.90;;;;;;;;;;5028013;28;20033;-70
2021/07/27 00:49:26;;;;;;;8.25;7.35;;;;;;;;;;5026460;28;20028;-70
2021/07/27 00:51:53;;;;;;;9.55;7.38;;;;;;;;;;5025480;28;20045;-70
2021/07/27 00:54:19;;;;;;;10.68;7.85;;;;;;;;;;5025895;28;20481;-70
2021/07/27 00:56:45;;;;;;;10.07;7.63;;;;;;;;;;5025047;28;20025;-70
2021/07/27 00:59:11;;;;;;;9.18;7.88;;;;;;;;;;5025460;28;20091;-71
2021/07/27 01:01:37;;;;;;;16.20;8.23;;;;;;;;;;5025416;28;20328;-70
2021/07/27 01:04:03;;;;;;;14.10;8.15;;;;;;;;;;5023847;28;20087;-70
2021/07/27 01:06:30;;;;;;;9.30;8.13;;;;;;;;;;5020504;28;20036;-70
2021/07/27 01:08:56;;;;;;;8.82;7.90;;;;;;;;;;5018841;28;20025;-70
2021/07/27 01:11:25;;;;;;;11.23;8.15;;;;;;;;;;5022765;28;20041;-71
2021/07/27 01:13:54;;;;;;;10.15;7.80;;;;;;;;;;5021478;28;20459;-70
2021/07/27 01:16:26;;;;;;;9.07;7.80;;;;;;;;;;5024898;28;20029;-70
2021/07/27 01:19:23;;;;;;;11.32;8.65;;;;;;;;;;5026686;28;20393;-71
2021/07/27 01:43:20;;;;;;;9.13;7.28;;;;;;;;;;5025819;28;20038;-70
2021/07/27 01:45:46;;;;;;;10.73;7.53;;;;;;;;;;5027911;28;20018;-71
2021/07/27 01:48:12;;;;;;;8.55;7.65;;;;;;;;;;5026724;28;20242;-70
2021/07/27 01:50:40;;;;;;;10.00;7.20;;;;;;;;;;5019080;28;20037;-70
2021/07/27 01:53:06;;;;;;;11.40;7.60;;;;;;;;;;5020442;28;20360;-70
2021/07/27 01:55:34;;;;;;;10.25;7.68;;;;;;;;;;5020061;28;20543;-70
2021/07/27 01:58:01;;;;;;;10.63;8.98;;;;;;;;;;5028481;28;20038;-70
2021/07/27 02:00:27;;;;;;;9.80;8.77;;;;;;;;;;5016213;28;20489;-70
2021/07/27 02:02:54;;;;;;;16.05;8.48;;;;;;;;;;5021524;28;20041;-70
2021/07/27 02:05:20;;;;;;;11.88;8.85;;;;;;;;;;5020690;28;20084;-71
2021/07/27 02:07:46;;;;;;;10.18;8.63;;;;;;;;;;5020024;28;20399;-70
2021/07/27 02:10:14;;;;;;;9.85;7.35;;;;;;;;;;5019033;28;20132;-70
2021/07/27 02:12:49;;;;;;;8.15;6.90;;;;;;;;;;5023827;28;20088;-70
2021/07/27 02:15:16;;;;;;;7.40;6.68;;;;;;;;;;5023198;28;20502;-70
2021/07/27 02:17:42;;;;;;;8.63;7.38;;;;;;;;;;5024112;28;20033;-70
2021/07/27 02:20:09;;;;;;;9.82;7.28;;;;;;;;;;5020574;28;20072;-70
2021/07/27 02:22:35;;;;;;;9.45;7.68;;;;;;;;;;5017716;28;20034;-70
2021/07/27 02:25:02;;;;;;;8.93;8.10;;;;;;;;;;5026553;28;20083;-71
2021/07/27 02:27:28;;;;;;;10.68;8.10;;;;;;;;;;5024156;28;20474;-70
2021/07/27 02:29:54;;;;;;;9.88;8.73;;;;;;;;;;5021591;28;20075;-70
2021/07/27 02:32:21;;;;;;;13.25;8.52;;;;;;;;;;5026019;28;20036;-70
2021/07/27 02:34:47;;;;;;;8.75;7.85;;;;;;;;;;5025514;28;20509;-70
2021/07/27 02:37:14;;;;;;;9.25;7.30;;;;;;;;;;5023283;28;20474;-71
2021/07/27 02:39:40;;;;;;;9.73;7.53;;;;;;;;;;5019315;28;20034;-70
2021/07/27 02:42:07;;;;;;;9.07;6.28;;;;;;;;;;5022459;28;20389;-70
2021/07/27 02:44:33;;;;;;;8.00;6.80;;;;;;;;;;5027115;28;20087;-70
2021/07/27 02:47:03;;;;;;;10.02;7.63;;;;;;;;;;5020114;28;20518;-70
2021/07/27 02:49:29;;;;;;;10.23;8.00;;;;;;;;;;5017696;28;20048;-71
2021/07/27 02:51:59;;;;;;;10.57;7.75;;;;;;;;;;5024864;28;20034;-70
2021/07/27 02:54:25;;;;;;;11.15;7.13;;;;;;;;;;5022192;28;20476;-70
2021/07/27 02:56:51;;;;;;;11.23;7.68;;;;;;;;;;5025013;28;20394;-70
2021/07/27 02:59:17;;;;;;;9.73;8.18;;;;;;;;;;5019837;28;20374;-70
2021/07/27 03:01:46;;;;;;;12.63;7.28;;;;;;;;;;5023107;28;20393;-70
2021/07/27 03:04:12;;;;;;;9.02;7.68;;;;;;;;;;5008649;28;20025;-70
2021/07/27 03:06:39;;;;;;;7.30;6.30;;;;;;;;;;5021808;28;20036;-70
2021/07/27 03:09:15;;;;;;;8.02;6.88;;;;;;;;;;5020893;28;20064;-70
2021/07/27 03:11:41;;;;;;;9.32;6.93;;;;;;;;;;5022201;28;20215;-70
2021/07/27 03:14:08;;;;;;;10.05;6.82;;;;;;;;;;5021926;28;20045;-70
2021/07/27 03:16:34;;;;;;;7.00;6.40;;;;;;;;;;5022085;28;20394;-70
2021/07/27 03:19:00;;;;;;;7.47;6.78;;;;;;;;;;5021832;28;20418;-70
2021/07/27 03:21:26;;;;;;;7.78;6.95;;;;;;;;;;5020360;28;20017;-70
2021/07/27 03:23:53;;;;;;;10.55;6.80;;;;;;;;;;5022394;28;20083;-70
2021/07/27 03:26:20;;;;;;;7.45;6.35;;;;;;;;;;5022083;28;20021;-70
2021/07/27 03:28:46;;;;;;;8.65;6.75;;;;;;;;;;5021751;28;20071;-70
2021/07/27 03:31:13;;;;;;;8.13;6.80;;;;;;;;;;5022230;28;20045;-70
2021/07/27 03:33:39;;;;;;;7.30;6.10;;;;;;;;;;5020412;28;20496;-70
2021/07/27 03:36:05;;;;;;;7.65;6.60;;;;;;;;;;5021856;28;20052;-70
2021/07/27 03:38:32;;;;;;;7.50;6.80;;;;;;;;;;5021715;28;20021;-70
2021/07/27 03:41:11;;;;;;;6.85;6.15;;;;;;;;;;5021989;28;20017;-70
2021/07/27 03:43:38;;;;;;;9.55;7.05;;;;;;;;;;5016338;28;20029;-70
2021/07/27 03:46:05;;;;;;;9.45;6.65;;;;;;;;;;5021802;28;20029;-70
2021/07/27 03:48:31;;;;;;;8.40;7.22;;;;;;;;;;5019924;28;20268;-70
2021/07/27 03:50:57;;;;;;;8.10;6.28;;;;;;;;;;5021690;28;20034;-69
2021/07/27 03:53:24;;;;;;;7.70;6.47;;;;;;;;;;5021771;28;20414;-70
2021/07/27 03:55:52;;;;;;;8.10;6.60;;;;;;;;;;5020523;28;20164;-70
2021/07/27 03:58:18;;;;;;;8.82;6.55;;;;;;;;;;5021969;28;20040;-70
2021/07/27 04:00:44;;;;;;;9.13;6.40;;;;;;;;;;5020024;28;20033;-70
2021/07/27 04:03:13;;;;;;;6.53;5.93;;;;;;;;;;5021354;28;20044;-70
2021/07/27 04:05:42;;;;;;;7.38;6.57;;;;;;;;;;5021034;28;20048;-70
2021/07/27 04:08:08;;;;;;;8.15;6.68;;;;;;;;;;5021455;28;20025;-70
2021/07/27 04:10:34;;;;;;;7.53;6.72;;;;;;;;;;5021193;28;20049;-70
2021/07/27 04:13:01;;;;;;;7.47;6.25;;;;;;;;;;5019649;28;20032;-70
2021/07/27 04:15:40;;;;;;;9.98;6.93;;;;;;;;;;5021003;28;20477;-70
2021/07/27 04:18:06;;;;;;;9.60;6.88;;;;;;;;;;5021001;28;20122;-70
2021/07/27 04:20:32;;;;;;;8.73;6.68;;;;;;;;;;5021286;28;20193;-70
2021/07/27 04:23:00;;;;;;;7.65;6.88;;;;;;;;;;5021098;28;20022;-70
2021/07/27 04:25:29;;;;;;;10.45;6.72;;;;;;;;;;5021216;28;20025;-70
2021/07/27 04:27:56;;;;;;;8.40;6.88;;;;;;;;;;5019490;28;20021;-70
2021/07/27 04:30:22;;;;;;;8.40;7.20;;;;;;;;;;5021013;28;20041;-70
2021/07/27 04:32:48;;;;;;;8.43;6.93;;;;;;;;;;5021338;28;20037;-70
2021/07/27 04:35:14;;;;;;;12.93;7.30;;;;;;;;;;5021249;28;20103;-70
2021/07/27 04:37:40;;;;;;;8.43;6.47;;;;;;;;;;5019633;28;20036;-70
2021/07/27 04:40:07;;;;;;;11.48;6.95;;;;;;;;;;5020634;28;20560;-70
2021/07/27 04:42:33;;;;;;;7.93;7.15;;;;;;;;;;5020776;28;20607;-71
2021/07/27 04:44:59;;;;;;;8.35;6.88;;;;;;;;;;5020974;28;20025;-70
2021/07/27 04:47:25;;;;;;;7.70;6.85;;;;;;;;;;5020111;28;20040;-71
2021/07/27 04:49:51;;;;;;;8.50;7.70;;;;;;;;;;5020357;28;20025;-70
2021/07/27 04:52:21;;;;;;;8.10;7.05;;;;;;;;;;5020813;28;20048;-70
2021/07/27 04:54:55;;;;;;;10.98;7.07;;;;;;;;;;5020970;28;20030;-70
2021/07/27 04:57:21;;;;;;;10.55;7.43;;;;;;;;;;5020850;28;20080;-70
2021/07/27 04:59:47;;;;;;;7.80;7.00;;;;;;;;;;5020833;28;20064;-70
2021/07/27 05:02:13;;;;;;;9.10;7.28;;;;;;;;;;5019216;28;20044;-70
2021/07/27 05:04:39;;;;;;;10.40;7.43;;;;;;;;;;5021063;28;20067;-70
2021/07/27 05:07:06;;;;;;;7.60;6.90;;;;;;;;;;5021033;28;20260;-70
2021/07/27 05:09:32;;;;;;;8.13;7.32;;;;;;;;;;5020654;28;20526;-70
2021/07/27 05:11:58;;;;;;;9.77;6.95;;;;;;;;;;5020683;28;20041;-70
2021/07/27 05:14:25;;;;;;;10.00;7.57;;;;;;;;;;5018776;28;20028;-70
2021/07/27 05:16:51;;;;;;;8.77;7.38;;;;;;;;;;5019328;28;20033;-69
2021/07/27 05:19:17;;;;;;;8.02;7.15;;;;;;;;;;5020236;28;20056;-70
2021/07/27 05:21:43;;;;;;;8.55;7.65;;;;;;;;;;5020709;28;20044;-71
2021/07/27 05:24:10;;;;;;;13.85;7.32;;;;;;;;;;5019333;28;20029;-71
2021/07/27 05:26:36;;;;;;;9.25;7.72;;;;;;;;;;5020594;28;20076;-70
2021/07/27 05:29:02;;;;;;;9.32;6.68;;;;;;;;;;5021620;28;20087;-70
2021/07/27 05:31:28;;;;;;;10.02;7.72;;;;;;;;;;5022940;28;20047;-70
2021/07/27 05:33:54;;;;;;;10.80;8.00;;;;;;;;;;5020859;28;20051;-70
2021/07/27 05:36:20;;;;;;;8.68;7.63;;;;;;;;;;5023770;28;20044;-70
2021/07/27 05:38:47;;;;;;;9.82;7.88;;;;;;;;;;5024296;28;20029;-70
2021/07/27 05:41:13;;;;;;;10.43;8.18;;;;;;;;;;5016157;28;20035;-70
2021/07/27 05:43:39;;;;;;;10.68;8.13;;;;;;;;;;5023952;28;20055;-70
2021/07/27 05:46:05;;;;;;;9.30;8.02;;;;;;;;;;5022001;28;20520;-71
2021/07/27 05:48:32;;;;;;;10.25;8.90;;;;;;;;;;5023944;28;20033;-71
2021/07/27 05:50:58;;;;;;;15.07;9.07;;;;;;;;;;5023938;28;20735;-70
2021/07/27 05:53:25;;;;;;;13.05;9.25;;;;;;;;;;5023625;28;20478;-71
2021/07/27 05:55:51;;;;;;;11.88;8.48;;;;;;;;;;5023034;28;20034;-72
2021/07/27 05:58:17;;;;;;;14.63;8.57;;;;;;;;;;5018096;28;20071;-73
2021/07/27 06:00:43;;;;;;;9.63;8.35;;;;;;;;;;5022946;28;20118;-72
2021/07/27 06:03:11;;;;;;;13.20;8.43;;;;;;;;;;5020676;28;20506;-72
2021/07/27 06:05:38;;;;;;;9.60;7.85;;;;;;;;;;5021985;28;20556;-72
2021/07/27 06:08:04;;;;;;;14.50;8.80;;;;;;;;;;5010070;28;20541;-73
2021/07/27 06:10:30;;;;;;;15.40;10.13;;;;;;;;;;5008272;28;20041;-73
2021/07/27 06:12:56;;;;;;;9.18;8.25;;;;;;;;;;5012692;28;20041;-73
2021/07/27 06:15:22;;;;;;;9.55;8.00;;;;;;;;;;5016617;28;20026;-72
2021/07/27 06:17:49;;;;;;;9.13;7.57;;;;;;;;;;5023294;28;20082;-72
2021/07/27 06:20:15;;;;;;;10.35;8.43;;;;;;;;;;5020350;28;20405;-72
2021/07/27 06:22:41;;;;;;;9.88;8.48;;;;;;;;;;5021851;28;20437;-72
2021/07/27 06:25:11;;;;;;;10.73;8.35;;;;;;;;;;5021784;28;20886;-72
2021/07/27 06:27:37;;;;;;;12.90;8.18;;;;;;;;;;5021957;28;20436;-72
2021/07/27 06:30:06;;;;;;;11.30;8.40;;;;;;;;;;5021949;28;20021;-72
2021/07/27 06:32:32;;;;;;;10.15;7.88;;;;;;;;;;5012235;28;20571;-70
2021/07/27 06:34:58;;;;;;;13.68;8.40;;;;;;;;;;5019184;28;20032;-71
2021/07/27 06:37:25;;;;;;;11.23;8.43;;;;;;;;;;5021545;28;20048;-70
2021/07/27 06:39:51;;;;;;;13.25;8.55;;;;;;;;;;5021837;28;20028;-70
2021/07/27 06:42:17;;;;;;;13.68;9.13;;;;;;;;;;5021662;28;20033;-70
2021/07/27 06:44:44;;;;;;;8.88;7.97;;;;;;;;;;5022339;28;20025;-70
2021/07/27 06:47:10;;;;;;;12.32;8.68;;;;;;;;;;5020477;28;20374;-71
2021/07/27 06:49:36;;;;;;;12.98;9.73;;;;;;;;;;5022992;28;20190;-71
2021/07/27 06:52:02;;;;;;;12.48;8.55;;;;;;;;;;5022843;28;20041;-70
2021/07/27 06:54:28;;;;;;;11.43;8.52;;;;;;;;;;5021106;28;20485;-71
2021/07/27 06:56:57;;;;;;;11.80;9.20;;;;;;;;;;5022212;28;20504;-70
2021/07/27 06:59:24;;;;;;;11.15;8.93;;;;;;;;;;5021225;28;20535;-70
2021/07/27 07:01:53;;;;;;;16.23;9.13;;;;;;;;;;5022838;28;20029;-71
2021/07/27 07:04:19;;;;;;;10.13;8.23;;;;;;;;;;5021944;28;20009;-70
2021/07/27 07:06:45;;;;;;;10.52;8.32;;;;;;;;;;5020389;28;20022;-71
2021/07/27 07:09:11;;;;;;;14.55;8.70;;;;;;;;;;5020830;28;20661;-70
2021/07/27 07:11:37;;;;;;;10.75;8.63;;;;;;;;;;5022142;28;20413;-71
2021/07/27 07:14:03;;;;;;;8.57;7.68;;;;;;;;;;5016709;28;20065;-71
2021/07/27 07:16:30;;;;;;;11.75;8.63;;;;;;;;;;5018496;28;20036;-71
2021/07/27 07:18:56;;;;;;;13.15;9.75;;;;;;;;;;5021769;28;20501;-71
2021/07/27 07:21:22;;;;;;;11.48;9.68;;;;;;;;;;5018959;28;20063;-70
2021/07/27 07:23:48;;;;;;;13.43;9.45;;;;;;;;;;5022586;28;20350;-71
2021/07/27 07:26:14;;;;;;;12.57;9.73;;;;;;;;;;5021477;28;20121;-71
2021/07/27 07:28:40;;;;;;;11.00;8.55;;;;;;;;;;5022264;28;20108;-71
2021/07/27 07:31:09;;;;;;;12.68;9.50;;;;;;;;;;5020481;28;20184;-70
2021/07/27 07:33:36;;;;;;;9.23;8.15;;;;;;;;;;5021070;28;20022;-71
2021/07/27 07:36:08;;;;;;;11.32;9.07;;;;;;;;;;5021765;28;20017;-71
2021/07/27 07:38:34;;;;;;;12.30;8.50;;;;;;;;;;5022105;28;20033;-71
2021/07/27 07:41:01;;;;;;;10.63;9.10;;;;;;;;;;5020172;28;20030;-71
2021/07/27 07:43:27;;;;;;;11.10;8.88;;;;;;;;;;5021517;28;20486;-71
2021/07/27 07:45:53;;;;;;;13.52;9.32;;;;;;;;;;5021754;28;20052;-71
2021/07/27 07:48:22;;;;;;;14.93;9.20;;;;;;;;;;5022202;28;20040;-71
2021/07/27 07:50:48;;;;;;;12.45;9.65;;;;;;;;;;5021229;28;20677;-71
2021/07/27 07:53:14;;;;;;;13.27;8.93;;;;;;;;;;5021888;28;20543;-71
2021/07/27 07:55:40;;;;;;;11.63;9.40;;;;;;;;;;5019800;28;20041;-70
2021/07/27 07:58:07;;;;;;;10.57;9.40;;;;;;;;;;5021852;28;20091;-70
2021/07/27 08:00:33;;;;;;;13.63;9.40;;;;;;;;;;5021639;28;20112;-71
2021/07/27 08:03:05;;;;;;;9.57;8.40;;;;;;;;;;5021597;28;20469;-71
2021/07/27 08:05:31;;;;;;;15.70;9.95;;;;;;;;;;5020368;28;20555;-70
2021/07/27 08:07:57;;;;;;;9.38;8.35;;;;;;;;;;5022046;28;20025;-70
2021/07/27 08:10:23;;;;;;;13.18;9.13;;;;;;;;;;5021438;28;20099;-70
2021/07/27 08:12:50;;;;;;;11.35;8.55;;;;;;;;;;5021533;28;20079;-71
2021/07/27 08:15:16;;;;;;;13.02;8.70;;;;;;;;;;5020180;28;20017;-71
2021/07/27 08:17:43;;;;;;;9.10;8.18;;;;;;;;;;5021767;28;20108;-71
2021/07/27 08:20:10;;;;;;;10.43;9.32;;;;;;;;;;5021801;28;20393;-71
2021/07/27 08:22:37;;;;;;;13.93;8.77;;;;;;;;;;5021105;28;20030;-71
2021/07/27 08:25:03;;;;;;;9.02;8.13;;;;;;;;;;5020141;28;20018;-71
2021/07/27 08:27:29;;;;;;;9.52;8.32;;;;;;;;;;5021501;28;20029;-71
2021/07/27 08:29:55;;;;;;;11.05;8.43;;;;;;;;;;5020129;28;20022;-71
2021/07/27 08:32:21;;;;;;;9.50;8.60;;;;;;;;;;5021522;28;20115;-71
2021/07/27 08:34:48;;;;;;;10.43;9.35;;;;;;;;;;5020468;28;20032;-76
2021/07/27 08:37:14;;;;;;;13.55;9.88;;;;;;;;;;5016812;28;20029;-73
2021/07/27 08:39:40;;;;;;;11.98;9.40;;;;;;;;;;5020553;28;20060;-73
2021/07/27 08:42:07;;;;;;;11.35;9.35;;;;;;;;;;5019958;28;20076;-72
2021/07/27 08:44:34;;;;;;;12.88;9.73;;;;;;;;;;5018553;28;20028;-73
2021/07/27 08:47:04;;;;;;;14.52;9.30;;;;;;;;;;5019833;28;20028;-72
2021/07/27 08:49:30;;;;;;;10.95;9.38;;;;;;;;;;5008140;28;20031;-72
2021/07/27 08:51:57;;;;;;;10.55;9.07;;;;;;;;;;5019005;28;20056;-72
2021/07/27 08:54:23;;;;;;;9.93;8.93;;;;;;;;;;5010975;28;20069;-73
2021/07/27 08:56:50;;;;;;;9.95;8.43;;;;;;;;;;5019908;28;20553;-72
2021/07/27 08:59:17;;;;;;;10.90;8.30;;;;;;;;;;5021006;28;20025;-72
2021/07/27 09:01:44;;;;;;;9.90;7.88;;;;;;;;;;5021068;28;20114;-73
2021/07/27 09:04:10;;;;;;;9.73;8.73;;;;;;;;;;5013550;28;20033;-73
2021/07/27 09:06:37;;;;;;;11.45;8.95;;;;;;;;;;5023206;28;20099;-72
2021/07/27 09:09:07;;;;;;;9.20;8.20;;;;;;;;;;5024855;28;20233;-73
2021/07/27 09:11:33;;;;;;;11.25;8.23;;;;;;;;;;5024882;28;20034;-72
2021/07/27 09:14:00;;;;;;;8.88;7.88;;;;;;;;;;5024316;28;20053;-73
2021/07/27 09:16:26;;;;;;;10.13;8.13;;;;;;;;;;5024064;28;20115;-73
2021/07/27 09:19:01;;;;;;;9.00;8.10;;;;;;;;;;5022994;28;20025;-73
2021/07/27 09:21:27;;;;;;;10.18;8.05;;;;;;;;;;5024135;28;20053;-72
2021/07/27 09:23:54;;;;;;;9.70;8.38;;;;;;;;;;5023199;28;20037;-72
2021/07/27 09:26:21;;;;;;;13.07;8.43;;;;;;;;;;5023881;28;20034;-71
2021/07/27 09:28:49;;;;;;;8.50;7.70;;;;;;;;;;5022518;28;20049;-72
2021/07/27 09:31:26;;;;;;;11.02;7.82;;;;;;;;;;5023837;28;20045;-71
2021/07/27 09:33:53;;;;;;;11.50;8.13;;;;;;;;;;5023973;28;20116;-72
2021/07/27 09:36:28;;;;;;;9.98;8.88;;;;;;;;;;5024254;28;20115;-72
2021/07/27 09:39:01;;;;;;;11.57;8.38;;;;;;;;;;5022537;28;20025;-72
2021/07/27 09:41:31;;;;;;;8.40;7.60;;;;;;;;;;5023772;28;20105;-71
2021/07/27 09:44:00;;;;;;;10.55;8.02;;;;;;;;;;5022589;28;20037;-72
2021/07/27 09:46:26;;;;;;;9.73;8.73;;;;;;;;;;5023419;28;20036;-71
2021/07/27 09:48:53;;;;;;;11.82;8.65;;;;;;;;;;5022663;28;20029;-72
2021/07/27 09:51:19;;;;;;;9.38;8.57;;;;;;;;;;5022379;28;20465;-72
2021/07/27 09:53:46;;;;;;;8.70;7.70;;;;;;;;;;5022469;28;20124;-71
2021/07/27 09:56:12;;;;;;;9.13;8.23;;;;;;;;;;5022050;28;20116;-72
2021/07/27 09:58:39;;;;;;;9.27;8.10;;;;;;;;;;5024004;28;20105;-71
2021/07/27 10:01:15;;;;;;;9.65;7.88;;;;;;;;;;5023470;28;20017;-72
2021/07/27 10:03:46;;;;;;;12.95;8.02;;;;;;;;;;5021871;28;20053;-71
2021/07/27 10:06:19;;;;;;;8.98;7.68;;;;;;;;;;5023277;28;20287;-72
2021/07/27 10:08:53;;;;;;;9.05;7.03;;;;;;;;;;5016476;28;20023;-71
2021/07/27 10:11:19;;;;;;;10.48;7.60;;;;;;;;;;5021552;28;20044;-71
2021/07/27 10:13:46;;;;;;;9.60;7.80;;;;;;;;;;5022890;28;20018;-72
2021/07/27 10:16:25;;;;;;;8.25;7.45;;;;;;;;;;5023329;28;20025;-71
2021/07/27 10:18:52;;;;;;;8.18;7.38;;;;;;;;;;5022590;28;20025;-72
2021/07/27 10:21:26;;;;;;;8.88;7.07;;;;;;;;;;5023294;28;20483;-72
2021/07/27 10:24:11;;;;;;;8.38;7.57;;;;;;;;;;5023128;28;20424;-71
2021/07/27 10:26:37;;;;;;;10.02;7.80;;;;;;;;;;5021263;28;20095;-71
2021/07/27 10:29:03;;;;;;;8.65;7.75;;;;;;;;;;5022825;28;20025;-71
2021/07/27 10:31:48;;;;;;;8.60;7.38;;;;;;;;;;5021915;28;20029;-72
2021/07/27 10:34:14;;;;;;;9.23;7.88;;;;;;;;;;5020475;28;20025;-72
2021/07/27 10:36:41;;;;;;;11.88;7.57;;;;;;;;;;5022691;28;20193;-72
2021/07/27 10:39:09;;;;;;;11.85;8.63;;;;;;;;;;5023222;28;20099;-71
2021/07/27 10:41:48;;;;;;;10.48;8.50;;;;;;;;;;5023201;28;20053;-72
2021/07/27 10:44:15;;;;;;;9.05;7.85;;;;;;;;;;5021181;28;20036;-72
2021/07/27 10:46:43;;;;;;;8.18;7.38;;;;;;;;;;5022643;28;20037;-72
2021/07/27 10:49:21;;;;;;;8.85;7.57;;;;;;;;;;5022381;28;20068;-72
2021/07/27 10:51:48;;;;;;;9.18;8.18;;;;;;;;;;5023187;28;20073;-72
2021/07/27 10:54:18;;;;;;;9.18;8.13;;;;;;;;;;5022032;28;20510;-72
2021/07/27 10:56:57;;;;;;;9.38;8.35;;;;;;;;;;5022616;28;20029;-72
2021/07/27 10:59:24;;;;;;;11.80;8.65;;;;;;;;;;5019701;28;20021;-72
2021/07/27 11:01:51;;;;;;;10.30;8.60;;;;;;;;;;5021707;28;20040;-72
2021/07/27 11:04:19;;;;;;;10.20;8.55;;;;;;;;;;5021912;28;20037;-72
2021/07/27 11:06:47;;;;;;;12.73;8.38;;;;;;;;;;5020963;28;20029;-72
2021/07/27 11:09:14;;;;;;;9.57;8.27;;;;;;;;;;5021690;28;20026;-72
2021/07/27 11:11:44;;;;;;;9.68;8.65;;;;;;;;;;5022416;28;20443;-71
2021/07/27 11:14:10;;;;;;;9.15;8.27;;;;;;;;;;5021261;28;20033;-71
2021/07/27 11:16:43;;;;;;;8.98;8.13;;;;;;;;;;5019668;28;20039;-73
2021/07/27 11:19:10;;;;;;;17.70;9.20;;;;;;;;;;5008966;28;20226;-72
2021/07/27 11:21:40;;;;;;;9.50;8.60;;;;;;;;;;5017796;28;20040;-70
2021/07/27 11:24:07;;;;;;;9.85;8.27;;;;;;;;;;5008701;28;20076;-72
2021/07/27 11:26:39;;;;;;;9.93;9.02;;;;;;;;;;5010648;28;20036;-72
2021/07/27 11:29:11;;;;;;;9.27;8.20;;;;;;;;;;5010274;28;20387;-73
2021/07/27 11:31:47;;;;;;;11.32;8.02;;;;;;;;;;5013460;28;20034;-72
2021/07/27 11:34:14;;;;;;;11.10;7.70;;;;;;;;;;5012612;28;20383;-72
2021/07/27 11:36:51;;;;;;;35.20;31.65;;;;;;;;;;5018581;28;20029;-71
2021/07/27 11:39:18;;;;;;;19.73;16.15;;;;;;;;;;5010956;28;20041;-71
2021/07/27 11:41:44;;;;;;;22.17;19.77;;;;;;;;;;5017094;28;20029;-73
2021/07/27 11:44:12;;;;;;;13.75;11.80;;;;;;;;;;5013020;28;20025;-73
2021/07/27 11:46:44;;;;;;;12.32;11.02;;;;;;;;;;5005361;28;20026;-73
2021/07/27 11:49:10;;;;;;;19.88;13.15;;;;;;;;;;5018114;28;20167;-72
2021/07/27 11:51:36;;;;;;;10.30;9.30;;;;;;;;;;5012174;28;20034;-71
2021/07/27 11:54:03;;;;;;;9.70;8.65;;;;;;;;;;5012829;28;20033;-71
2021/07/27 11:56:29;;;;;;;8.60;7.70;;;;;;;;;;5006495;28;20029;-70
2021/07/27 11:59:02;;;;;;;10.63;8.18;;;;;;;;;;5011524;28;20053;-71
2021/07/27 12:01:38;;;;;;;8.50;7.63;;;;;;;;;;5016207;28;20025;-71
2021/07/27 12:04:04;;;;;;;8.80;7.90;;;;;;;;;;5017381;28;20029;-71
2021/07/27 12:06:31;;;;;;;9.45;8.55;;;;;;;;;;5013453;28;20037;-71
2021/07/27 12:08:59;;;;;;;8.02;7.22;;;;;;;;;;5011286;28;20409;-71
2021/07/27 12:11:25;;;;;;;9.80;7.80;;;;;;;;;;5009965;28;20866;-72
2021/07/27 12:13:51;;;;;;;9.27;8.35;;;;;;;;;;5006681;28;20121;-71
2021/07/27 12:16:18;;;;;;;9.82;8.35;;;;;;;;;;5012260;28;20567;-72
2021/07/27 12:18:44;;;;;;;8.27;7.47;;;;;;;;;;5011696;28;20476;-72
2021/07/27 12:21:10;;;;;;;9.15;7.43;;;;;;;;;;5012844;28;20511;-72
2021/07/27 12:23:36;;;;;;;11.02;8.30;;;;;;;;;;5013270;28;20386;-72
2021/07/27 12:26:05;;;;;;;8.70;7.07;;;;;;;;;;5015585;28;20034;-72
2021/07/27 12:28:32;;;;;;;9.77;6.93;;;;;;;;;;5012814;28;20079;-72
2021/07/27 12:30:58;;;;;;;9.95;8.00;;;;;;;;;;5011302;28;20043;-71
2021/07/27 12:33:24;;;;;;;8.15;6.90;;;;;;;;;;5003728;28;20041;-72
2021/07/27 12:35:50;;;;;;;7.65;6.65;;;;;;;;;;5006938;28;20033;-71
2021/07/27 12:38:17;;;;;;;8.25;6.82;;;;;;;;;;5009317;28;20037;-72
2021/07/27 12:40:43;;;;;;;8.50;7.40;;;;;;;;;;5012672;28;20586;-71
2021/07/27 12:43:09;;;;;;;11.45;7.55;;;;;;;;;;5004986;28;20653;-71
2021/07/27 12:45:38;;;;;;;10.55;7.45;;;;;;;;;;5007812;28;20529;-71
2021/07/27 12:48:04;;;;;;;10.68;7.28;;;;;;;;;;5013227;28;20065;-72
2021/07/27 12:50:30;;;;;;;8.98;7.25;;;;;;;;;;5014522;28;20025;-72
2021/07/27 12:52:56;;;;;;;7.22;6.55;;;;;;;;;;5018417;28;20045;-71
2021/07/27 12:55:22;;;;;;;7.50;6.80;;;;;;;;;;5008006;28;20026;-71
2021/07/27 12:57:48;;;;;;;9.60;6.88;;;;;;;;;;5004892;28;20563;-71
2021/07/27 13:00:15;;;;;;;8.23;6.72;;;;;;;;;;5005954;28;20106;-71
2021/07/27 13:02:41;;;;;;;7.10;6.20;;;;;;;;;;5011332;28;20112;-71
2021/07/27 13:05:07;;;;;;;8.75;6.40;;;;;;;;;;5014276;28;20552;-72
2021/07/27 13:07:34;;;;;;;6.30;5.70;;;;;;;;;;5012749;28;20382;-71
2021/07/27 13:10:00;;;;;;;6.57;5.95;;;;;;;;;;5015033;28;20469;-71
2021/07/27 13:12:27;;;;;;;8.52;6.45;;;;;;;;;;5018908;28;20041;-72
2021/07/27 13:14:55;;;;;;;7.15;6.45;;;;;;;;;;5003214;28;20073;-71
2021/07/27 13:17:21;;;;;;;7.32;6.45;;;;;;;;;;5019045;28;20041;-71
2021/07/27 13:19:47;;;;;;;9.82;6.78;;;;;;;;;;5020347;28;20042;-71
2021/07/27 13:22:13;;;;;;;8.70;6.72;;;;;;;;;;5018011;28;20037;-71
2021/07/27 13:24:40;;;;;;;6.72;6.05;;;;;;;;;;5014411;28;20049;-71
2021/07/27 13:27:07;;;;;;;8.90;6.70;;;;;;;;;;5019657;28;20029;-71
2021/07/27 13:29:37;;;;;;;10.45;6.70;;;;;;;;;;5015072;28;20048;-71
2021/07/27 13:32:04;;;;;;;7.40;6.00;;;;;;;;;;5021003;28;20041;-71
2021/07/27 13:34:30;;;;;;;7.63;6.07;;;;;;;;;;5011388;28;20057;-71
2021/07/27 13:36:56;;;;;;;8.48;6.47;;;;;;;;;;5013171;28;20026;-71
2021/07/27 13:39:22;;;;;;;8.10;6.57;;;;;;;;;;5017624;28;20061;-72
2021/07/27 13:41:48;;;;;;;7.18;6.45;;;;;;;;;;5020563;28;20036;-71
2021/07/27 13:44:15;;;;;;;7.60;5.60;;;;;;;;;;5020828;28;20596;-71
2021/07/27 13:46:41;;;;;;;6.93;6.22;;;;;;;;;;5013717;28;20047;-71
2021/07/27 13:49:07;;;;;;;7.55;6.60;;;;;;;;;;5018708;28;20046;-71
2021/07/27 13:51:33;;;;;;;8.10;6.68;;;;;;;;;;5010585;28;20037;-71
2021/07/27 13:53:59;;;;;;;8.27;6.35;;;;;;;;;;5021380;28;20029;-71
2021/07/27 13:56:26;;;;;;;9.10;6.53;;;;;;;;;;5015084;28;20837;-71
2021/07/27 13:58:52;;;;;;;8.20;6.00;;;;;;;;;;5014581;28;20040;-71
2021/07/27 14:01:18;;;;;;;7.90;5.88;;;;;;;;;;5016947;28;20042;-71
2021/07/27 14:03:45;;;;;;;6.88;5.68;;;;;;;;;;5020434;28;20025;-71
2021/07/27 14:06:11;;;;;;;7.90;6.32;;;;;;;;;;5016348;28;20087;-72
2021/07/27 14:08:37;;;;;;;9.35;6.32;;;;;;;;;;5016224;28;20021;-71
2021/07/27 14:11:03;;;;;;;7.07;6.35;;;;;;;;;;5018606;28;20048;-71
2021/07/27 14:13:29;;;;;;;8.43;6.28;;;;;;;;;;5020781;28;20025;-71
2021/07/27 14:15:58;;;;;;;6.97;6.38;;;;;;;;;;5017887;28;20025;-71
2021/07/27 14:18:24;;;;;;;7.50;5.97;;;;;;;;;;5010338;28;20045;-71
2021/07/27 14:20:50;;;;;;;6.88;5.63;;;;;;;;;;5018682;28;20041;-71
2021/07/27 14:23:17;;;;;;;7.72;6.07;;;;;;;;;;5018991;28;20527;-71
2021/07/27 14:25:43;;;;;;;7.30;6.28;;;;;;;;;;5016993;28;20049;-71
2021/07/27 14:28:09;;;;;;;6.88;6.10;;;;;;;;;;5017069;28;20184;-71
2021/07/27 14:30:36;;;;;;;8.32;6.38;;;;;;;;;;5012386;28;20029;-71
2021/07/27 14:33:02;;;;;;;8.02;6.32;;;;;;;;;;5011232;28;20536;-71
2021/07/27 14:35:28;;;;;;;8.02;6.22;;;;;;;;;;5017827;28;20088;-71
2021/07/27 14:37:54;;;;;;;8.30;6.32;;;;;;;;;;5016960;28;20040;-71
2021/07/27 14:40:20;;;;;;;8.10;6.10;;;;;;;;;;5014916;28;20505;-71
2021/07/27 14:42:47;;;;;;;6.30;5.70;;;;;;;;;;5013992;28;20052;-71
2021/07/27 14:45:13;;;;;;;7.72;6.40;;;;;;;;;;5014458;28;20064;-71
2021/07/27 14:47:39;;;;;;;9.95;6.32;;;;;;;;;;5014335;28;20131;-71
2021/07/27 14:50:06;;;;;;;6.75;6.10;;;;;;;;;;5021289;28;20029;-71
2021/07/27 14:52:32;;;;;;;9.25;6.32;;;;;;;;;;5013398;28;20026;-71
2021/07/27 14:54:58;;;;;;;10.02;6.57;;;;;;;;;;5016901;28;20014;-71
2021/07/27 14:57:25;;;;;;;7.53;6.38;;;;;;;;;;5015622;28;20497;-71
2021/07/27 14:59:51;;;;;;;8.52;6.25;;;;;;;;;;5017420;28;20377;-72